TOM9CK EGBB-LEPA
Flight info
| Callsign | TOM9CK |
|---|---|
| Flight time | N/A |
| Altitude | 37000 |
| Route | CPT UN859 SOPIL DCT BALAN DCT EVPOK DCT NARAK DCT GAI DCT LOMRA DCT ROCAN DCT IBRAP DCT LUKEV DCT LORES |
| Aircraft | B38M/M-SDE1FGHILORVWXY/HB1 |
Departure
| Time | N/A |
|---|---|
| Airport | Birmingham Airport (EGBB) |
Arrival
| Time | 2026-05-07 17:08 |
|---|---|
| Airport | Palma de Mallorca Airport (LEPA) |
| Time | Latitude | Longitude | Altitude | Speed | Heading |
|---|---|---|---|---|---|
| 2026-05-07 16:51 | 40.30748 | 2.84203 | 19683 ft | 341 kts | 154° |
| 2026-05-07 16:51 | 40.28655 | 2.85714 | 19329 ft | 338 kts | 154° |
| 2026-05-07 16:51 | 40.26602 | 2.87194 | 18967 ft | 336 kts | 154° |
| 2026-05-07 16:51 | 40.24561 | 2.88665 | 18615 ft | 333 kts | 154° |
| 2026-05-07 16:52 | 40.22564 | 2.90103 | 18271 ft | 331 kts | 153° |
| 2026-05-07 16:52 | 40.20546 | 2.91560 | 17829 ft | 330 kts | 152° |
| 2026-05-07 16:52 | 40.18498 | 2.92907 | 17215 ft | 332 kts | 163° |
| 2026-05-07 16:52 | 40.16190 | 2.93215 | 16470 ft | 340 kts | 186° |
| 2026-05-07 16:53 | 40.13875 | 2.92461 | 15753 ft | 348 kts | 200° |
| 2026-05-07 16:53 | 40.11735 | 2.90907 | 15146 ft | 354 kts | 213° |
| 2026-05-07 16:53 | 40.09700 | 2.89096 | 14704 ft | 353 kts | 213° |
| 2026-05-07 16:53 | 40.07679 | 2.87281 | 14300 ft | 351 kts | 212° |
| 2026-05-07 16:54 | 40.05683 | 2.85473 | 13906 ft | 348 kts | 213° |
| 2026-05-07 16:54 | 40.03702 | 2.83667 | 13492 ft | 346 kts | 213° |
| 2026-05-07 16:54 | 40.01737 | 2.81873 | 13061 ft | 344 kts | 213° |
| 2026-05-07 16:54 | 39.99789 | 2.80093 | 12699 ft | 340 kts | 213° |
| 2026-05-07 16:55 | 39.97863 | 2.78335 | 12346 ft | 336 kts | 212° |
| 2026-05-07 16:55 | 39.95958 | 2.76598 | 11979 ft | 333 kts | 213° |
| 2026-05-07 16:55 | 39.94069 | 2.74878 | 11615 ft | 330 kts | 213° |
| 2026-05-07 16:55 | 39.92193 | 2.73171 | 11257 ft | 327 kts | 213° |
| 2026-05-07 16:56 | 39.90335 | 2.71481 | 10898 ft | 325 kts | 213° |
| 2026-05-07 16:56 | 39.88484 | 2.69801 | 10573 ft | 321 kts | 213° |
| 2026-05-07 16:56 | 39.84930 | 2.66565 | 10341 ft | 301 kts | 214° |
| 2026-05-07 16:57 | 39.83236 | 2.65023 | 10206 ft | 292 kts | 214° |
| 2026-05-07 16:57 | 39.81615 | 2.63550 | 10057 ft | 285 kts | 214° |
| 2026-05-07 16:57 | 39.79998 | 2.62086 | 9772 ft | 283 kts | 214° |
| 2026-05-07 16:57 | 39.78383 | 2.60628 | 9419 ft | 282 kts | 214° |
| 2026-05-07 16:58 | 39.76769 | 2.59174 | 9090 ft | 282 kts | 213° |
| 2026-05-07 16:58 | 39.75160 | 2.57723 | 8764 ft | 281 kts | 213° |
| 2026-05-07 16:58 | 39.73558 | 2.56280 | 8445 ft | 279 kts | 213° |
| 2026-05-07 16:58 | 39.71967 | 2.54848 | 8134 ft | 278 kts | 213° |
| 2026-05-07 16:59 | 39.70383 | 2.53423 | 7820 ft | 276 kts | 213° |
| 2026-05-07 16:59 | 39.68806 | 2.52006 | 7536 ft | 275 kts | 213° |
| 2026-05-07 16:59 | 39.67234 | 2.50595 | 7240 ft | 275 kts | 213° |
| 2026-05-07 16:59 | 39.65655 | 2.49178 | 6908 ft | 275 kts | 213° |
| 2026-05-07 17:00 | 39.64086 | 2.47771 | 6609 ft | 274 kts | 212° |
| 2026-05-07 17:00 | 39.62517 | 2.46365 | 6298 ft | 273 kts | 212° |
| 2026-05-07 17:00 | 39.60955 | 2.44964 | 5993 ft | 273 kts | 212° |
| 2026-05-07 17:00 | 39.59396 | 2.43568 | 5653 ft | 271 kts | 212° |
| 2026-05-07 17:01 | 39.57859 | 2.42193 | 5512 ft | 264 kts | 212° |
| 2026-05-07 17:01 | 39.56311 | 2.41040 | 5408 ft | 251 kts | 194° |
| 2026-05-07 17:01 | 39.54641 | 2.40858 | 5167 ft | 240 kts | 166° |
| 2026-05-07 17:01 | 39.53131 | 2.41636 | 4948 ft | 231 kts | 144° |
| 2026-05-07 17:02 | 39.51799 | 2.42755 | 4754 ft | 227 kts | 144° |
| 2026-05-07 17:02 | 39.50497 | 2.43891 | 4515 ft | 224 kts | 142° |
| 2026-05-07 17:02 | 39.49236 | 2.45019 | 4280 ft | 218 kts | 142° |
| 2026-05-07 17:02 | 39.48005 | 2.46139 | 3987 ft | 213 kts | 142° |
| 2026-05-07 17:03 | 39.46822 | 2.47228 | 3797 ft | 204 kts | 141° |
| 2026-05-07 17:03 | 39.45930 | 2.48556 | 3561 ft | 192 kts | 112° |
| 2026-05-07 17:03 | 39.45645 | 2.50183 | 3341 ft | 182 kts | 88° |
| 2026-05-07 17:03 | 39.45934 | 2.51816 | 3304 ft | 196 kts | 63° |
| 2026-05-07 17:04 | 39.46670 | 2.53518 | 3227 ft | 242 kts | 60° |
| 2026-05-07 17:04 | 39.47521 | 2.55406 | 3068 ft | 241 kts | 61° |
| 2026-05-07 17:04 | 39.48316 | 2.57290 | 2732 ft | 243 kts | 63° |
| 2026-05-07 17:04 | 39.49092 | 2.59136 | 2380 ft | 218 kts | 61° |
| 2026-05-07 17:05 | 39.49833 | 2.60731 | 2041 ft | 196 kts | 59° |
| 2026-05-07 17:05 | 39.50503 | 2.62142 | 1758 ft | 171 kts | 59° |
| 2026-05-07 17:05 | 39.51081 | 2.63365 | 1530 ft | 149 kts | 59° |
| 2026-05-07 17:05 | 39.51599 | 2.64462 | 1294 ft | 140 kts | 59° |
| 2026-05-07 17:06 | 39.52096 | 2.65517 | 1082 ft | 138 kts | 58° |
| 2026-05-07 17:06 | 39.52599 | 2.66581 | 851 ft | 139 kts | 58° |
| 2026-05-07 17:06 | 39.53112 | 2.67667 | 670 ft | 143 kts | 59° |
| 2026-05-07 17:06 | 39.53628 | 2.68764 | 483 ft | 142 kts | 59° |
| 2026-05-07 17:07 | 39.54155 | 2.69876 | 266 ft | 145 kts | 57° |
| 2026-05-07 17:07 | 39.54669 | 2.70966 | 91 ft | 141 kts | 57° |
| 2026-05-07 17:07 | 39.55144 | 2.71975 | 41 ft | 104 kts | 58° |
| 2026-05-07 17:07 | 39.55421 | 2.72554 | 39 ft | 68 kts | 58° |
| 2026-05-07 17:08 | 39.55495 | 2.72860 | 41 ft | 19 kts | 88° |
| 2026-05-07 17:08 | 39.55499 | 2.73016 | 39 ft | 10 kts | 89° |
| 2026-05-07 17:08 | 39.55500 | 2.73060 | 41 ft | 0 kts | 88° |
| 2026-05-07 17:08 | 39.55500 | 2.73071 | 41 ft | 2 kts | 88° |
| 2026-05-07 17:09 | 39.55501 | 2.73104 | 41 ft | 5 kts | 88° |
| 2026-05-07 17:09 | 39.55478 | 2.73118 | 41 ft | 7 kts | 208° |
| 2026-05-07 17:09 | 39.55429 | 2.73026 | 40 ft | 17 kts | 237° |
| 2026-05-07 17:09 | 39.55344 | 2.72991 | 40 ft | 14 kts | 148° |
| 2026-05-07 17:10 | 39.55278 | 2.73044 | 40 ft | 7 kts | 148° |
| 2026-05-07 17:10 | 39.55255 | 2.73046 | 41 ft | 3 kts | 197° |
| 2026-05-07 17:10 | 39.55203 | 2.73026 | 41 ft | 12 kts | 194° |
| 2026-05-07 17:10 | 39.55159 | 2.73012 | 41 ft | 0 kts | 194° |